BAW731 LSZH-EGLL
Flight info
| Callsign | BAW731 |
|---|---|
| Flight time | 1h 14m |
| Altitude | 34000 |
| Route | DCT VEBIT T51 LASUN T14 LUMEL T10 TORPA DCT RLP/N0441F360 DCT KOTUN/N0436F340 DCT ABNUR/N0442F360 DCT ALESO DCT |
| Aircraft | A319/M-SDE3FGIJ1KRWXY/LB1 |
Departure
| Time | 2026-05-04 08:28 |
|---|---|
| Airport | Zürich Airport (LSZH) |
Arrival
| Time | 2026-05-04 09:42 |
|---|---|
| Airport | London Heathrow Airport (EGLL) |
| Time | Latitude | Longitude | Altitude | Speed | Heading |
|---|---|---|---|---|---|
| 2026-05-04 08:02 | 47.46072 | 8.55181 | 1402 ft | 0 kts | 65° |
| 2026-05-04 08:02 | 47.46072 | 8.55179 | 1403 ft | 0 kts | 65° |
| 2026-05-04 08:19 | 47.46069 | 8.55170 | 1406 ft | 4 kts | 65° |
| 2026-05-04 08:19 | 47.46058 | 8.55136 | 1402 ft | 2 kts | 65° |
| 2026-05-04 08:20 | 47.46050 | 8.55104 | 1403 ft | 4 kts | 88° |
| 2026-05-04 08:20 | 47.46055 | 8.55069 | 1403 ft | 4 kts | 131° |
| 2026-05-04 08:20 | 47.46075 | 8.55049 | 1405 ft | 4 kts | 155° |
| 2026-05-04 08:20 | 47.46082 | 8.55044 | 1399 ft | 0 kts | 155° |
| 2026-05-04 08:24 | 47.45894 | 8.55216 | 1398 ft | 12 kts | 94° |
| 2026-05-04 08:24 | 47.45887 | 8.55369 | 1396 ft | 18 kts | 94° |
| 2026-05-04 08:24 | 47.45873 | 8.55586 | 1397 ft | 24 kts | 96° |
| 2026-05-04 08:24 | 47.45850 | 8.55855 | 1398 ft | 29 kts | 97° |
| 2026-05-04 08:25 | 47.45838 | 8.56064 | 1399 ft | 21 kts | 95° |
| 2026-05-04 08:25 | 47.45820 | 8.56295 | 1399 ft | 24 kts | 99° |
| 2026-05-04 08:25 | 47.45804 | 8.56499 | 1404 ft | 18 kts | 95° |
| 2026-05-04 08:25 | 47.45790 | 8.56716 | 1407 ft | 25 kts | 95° |
| 2026-05-04 08:26 | 47.45775 | 8.56935 | 1403 ft | 13 kts | 96° |
| 2026-05-04 08:27 | 47.45891 | 8.53933 | 1787 ft | 149 kts | 276° |
| 2026-05-04 08:28 | 47.45996 | 8.52408 | 2504 ft | 150 kts | 277° |
| 2026-05-04 08:28 | 47.46103 | 8.50803 | 3004 ft | 167 kts | 278° |
| 2026-05-04 08:28 | 47.46227 | 8.49008 | 3393 ft | 189 kts | 277° |
| 2026-05-04 08:28 | 47.45901 | 8.47013 | 3702 ft | 221 kts | 236° |
| 2026-05-04 08:29 | 47.44748 | 8.45310 | 4182 ft | 248 kts | 223° |
| 2026-05-04 08:29 | 47.43404 | 8.43520 | 4842 ft | 270 kts | 222° |
| 2026-05-04 08:29 | 47.42051 | 8.41471 | 5799 ft | 279 kts | 229° |
| 2026-05-04 08:31 | 47.34899 | 8.23110 | 12009 ft | 325 kts | 240° |
| 2026-05-04 08:33 | 47.28059 | 8.01370 | 17346 ft | 354 kts | 263° |
| 2026-05-04 08:33 | 47.28063 | 7.98904 | 17815 ft | 360 kts | 272° |
| 2026-05-04 08:35 | 47.35208 | 7.73877 | 22043 ft | 394 kts | 291° |
| 2026-05-04 08:35 | 47.36349 | 7.70175 | 22595 ft | 397 kts | 291° |
| 2026-05-04 08:35 | 47.37493 | 7.66453 | 23116 ft | 401 kts | 291° |
| 2026-05-04 08:35 | 47.38646 | 7.62692 | 23630 ft | 404 kts | 291° |
| 2026-05-04 08:37 | 47.41145 | 7.38480 | 26295 ft | 405 kts | 265° |
| 2026-05-04 08:37 | 47.41074 | 7.34317 | 26777 ft | 407 kts | 265° |
| 2026-05-04 08:37 | 47.41001 | 7.30130 | 27253 ft | 409 kts | 265° |
| 2026-05-04 08:38 | 47.40924 | 7.25928 | 27750 ft | 410 kts | 265° |
| 2026-05-04 08:38 | 47.40843 | 7.21707 | 28222 ft | 412 kts | 265° |
| 2026-05-04 08:38 | 47.40774 | 7.17508 | 28686 ft | 415 kts | 267° |
| 2026-05-04 08:40 | 47.44836 | 6.87394 | 31480 ft | 434 kts | 278° |
| 2026-05-04 08:40 | 47.45470 | 6.83025 | 31857 ft | 435 kts | 278° |
| 2026-05-04 08:40 | 47.46101 | 6.78669 | 32376 ft | 432 kts | 277° |
| 2026-05-04 08:41 | 47.46726 | 6.74338 | 32914 ft | 429 kts | 277° |
| 2026-05-04 08:41 | 47.47346 | 6.70032 | 33485 ft | 427 kts | 277° |
| 2026-05-04 08:41 | 47.48077 | 6.65772 | 33959 ft | 430 kts | 283° |
| 2026-05-04 08:42 | 47.50472 | 6.57711 | 34056 ft | 423 kts | 289° |
| 2026-05-04 08:42 | 47.52936 | 6.49841 | 34056 ft | 420 kts | 289° |
| 2026-05-04 08:43 | 47.55358 | 6.41989 | 34054 ft | 419 kts | 288° |
| 2026-05-04 08:43 | 47.57771 | 6.34131 | 34054 ft | 419 kts | 288° |
| 2026-05-04 08:44 | 47.60181 | 6.26268 | 34072 ft | 419 kts | 288° |
| 2026-05-04 08:46 | 47.69813 | 5.94699 | 34036 ft | 420 kts | 288° |
| 2026-05-04 08:46 | 47.72196 | 5.86790 | 34051 ft | 420 kts | 288° |
| 2026-05-04 08:47 | 47.74582 | 5.78865 | 34041 ft | 420 kts | 288° |
| 2026-05-04 08:47 | 47.76954 | 5.70979 | 34032 ft | 420 kts | 288° |
| 2026-05-04 08:48 | 47.79336 | 5.63037 | 34031 ft | 421 kts | 288° |
| 2026-05-04 08:48 | 47.81713 | 5.55081 | 34026 ft | 421 kts | 287° |
| 2026-05-04 08:49 | 47.84080 | 5.47107 | 34041 ft | 422 kts | 287° |
| 2026-05-04 08:50 | 47.91673 | 5.23337 | 34022 ft | 435 kts | 301° |
| 2026-05-04 08:50 | 47.93672 | 5.19908 | 34022 ft | 439 kts | 306° |
| 2026-05-04 08:51 | 47.97783 | 5.13166 | 34019 ft | 439 kts | 306° |
| 2026-05-04 08:51 | 48.01885 | 5.06400 | 34027 ft | 440 kts | 306° |
| 2026-05-04 08:52 | 48.05985 | 4.99616 | 34012 ft | 440 kts | 306° |
| 2026-05-04 08:52 | 48.10089 | 4.92807 | 34000 ft | 440 kts | 306° |
| 2026-05-04 08:54 | 48.26459 | 4.65469 | 34025 ft | 441 kts | 305° |
| 2026-05-04 08:55 | 48.30549 | 4.58601 | 34004 ft | 441 kts | 305° |
| 2026-05-04 08:55 | 48.34636 | 4.51715 | 33998 ft | 441 kts | 305° |
| 2026-05-04 09:01 | 48.77893 | 3.79848 | 33996 ft | 445 kts | 312° |
| 2026-05-04 09:01 | 48.82543 | 3.73630 | 33990 ft | 445 kts | 312° |
| 2026-05-04 09:02 | 48.87178 | 3.67389 | 33989 ft | 445 kts | 311° |
| 2026-05-04 09:02 | 48.91816 | 3.61135 | 33990 ft | 446 kts | 311° |
| 2026-05-04 09:03 | 48.96421 | 3.54918 | 33996 ft | 446 kts | 311° |
| 2026-05-04 09:03 | 49.01056 | 3.48633 | 34011 ft | 447 kts | 311° |
| 2026-05-04 09:04 | 49.05698 | 3.42328 | 34004 ft | 448 kts | 311° |
| 2026-05-04 09:04 | 49.10348 | 3.35997 | 33985 ft | 448 kts | 311° |
| 2026-05-04 09:05 | 49.14999 | 3.29647 | 33983 ft | 449 kts | 311° |
| 2026-05-04 09:05 | 49.19656 | 3.23281 | 33987 ft | 449 kts | 311° |
| 2026-05-04 09:06 | 49.24313 | 3.16899 | 33985 ft | 449 kts | 311° |
| 2026-05-04 09:08 | 49.42892 | 2.91238 | 33990 ft | 450 kts | 311° |
| 2026-05-04 09:08 | 49.47540 | 2.84775 | 33986 ft | 450 kts | 311° |
| 2026-05-04 09:09 | 49.52176 | 2.78316 | 33991 ft | 450 kts | 311° |
| 2026-05-04 09:09 | 49.56807 | 2.71841 | 33991 ft | 449 kts | 311° |
| 2026-05-04 09:10 | 49.61397 | 2.65405 | 34002 ft | 449 kts | 311° |
| 2026-05-04 09:10 | 49.66022 | 2.58899 | 33990 ft | 450 kts | 311° |
| 2026-05-04 09:11 | 49.70659 | 2.52364 | 33979 ft | 450 kts | 311° |
| 2026-05-04 09:11 | 49.75281 | 2.45834 | 33993 ft | 450 kts | 311° |
| 2026-05-04 09:12 | 49.79904 | 2.39290 | 33991 ft | 450 kts | 311° |
| 2026-05-04 09:14 | 49.98305 | 2.13028 | 33993 ft | 451 kts | 311° |
| 2026-05-04 09:14 | 50.02916 | 2.06408 | 33993 ft | 451 kts | 311° |
| 2026-05-04 09:15 | 50.07525 | 1.99786 | 33996 ft | 451 kts | 311° |
| 2026-05-04 09:15 | 50.12125 | 1.93140 | 33996 ft | 451 kts | 311° |
| 2026-05-04 09:17 | 50.31461 | 1.63616 | 34034 ft | 447 kts | 309° |
| 2026-05-04 09:18 | 50.35851 | 1.56720 | 34028 ft | 449 kts | 309° |
| 2026-05-04 09:18 | 50.40345 | 1.49681 | 34025 ft | 461 kts | 309° |
| 2026-05-04 09:19 | 50.44882 | 1.42580 | 33778 ft | 460 kts | 309° |
| 2026-05-04 09:19 | 50.47165 | 1.38997 | 32623 ft | 469 kts | 309° |
| 2026-05-04 09:19 | 50.49488 | 1.35336 | 31599 ft | 474 kts | 310° |
| 2026-05-04 09:20 | 50.51810 | 1.31670 | 30809 ft | 473 kts | 310° |
| 2026-05-04 09:20 | 50.54065 | 1.28108 | 30170 ft | 465 kts | 310° |
| 2026-05-04 09:20 | 50.56360 | 1.24475 | 29251 ft | 458 kts | 310° |
| 2026-05-04 09:20 | 50.58562 | 1.20983 | 28377 ft | 452 kts | 310° |
| 2026-05-04 09:21 | 50.60765 | 1.17503 | 27513 ft | 445 kts | 310° |
| 2026-05-04 09:21 | 50.62937 | 1.14077 | 26721 ft | 437 kts | 310° |
| 2026-05-04 09:21 | 50.65060 | 1.10728 | 26144 ft | 426 kts | 310° |
| 2026-05-04 09:21 | 50.66964 | 1.07726 | 25672 ft | 415 kts | 310° |
| 2026-05-04 09:22 | 50.68975 | 1.04549 | 25184 ft | 404 kts | 310° |
| 2026-05-04 09:22 | 50.70937 | 1.01447 | 24712 ft | 395 kts | 310° |
| 2026-05-04 09:22 | 50.72854 | 0.98407 | 24257 ft | 387 kts | 310° |
| 2026-05-04 09:22 | 50.74730 | 0.95421 | 23813 ft | 379 kts | 310° |
| 2026-05-04 09:23 | 50.76566 | 0.92491 | 23343 ft | 371 kts | 311° |
| 2026-05-04 09:23 | 50.78358 | 0.89630 | 22906 ft | 362 kts | 311° |
| 2026-05-04 09:23 | 50.80114 | 0.86823 | 22481 ft | 358 kts | 311° |
| 2026-05-04 09:23 | 50.81861 | 0.84026 | 22066 ft | 357 kts | 311° |
| 2026-05-04 09:25 | 50.93778 | 0.64884 | 18894 ft | 342 kts | 312° |
| 2026-05-04 09:25 | 50.95446 | 0.62200 | 18422 ft | 341 kts | 312° |
| 2026-05-04 09:26 | 50.97109 | 0.59513 | 17907 ft | 340 kts | 312° |
| 2026-05-04 09:26 | 50.98796 | 0.56784 | 17242 ft | 351 kts | 312° |
| 2026-05-04 09:26 | 51.00508 | 0.54012 | 16600 ft | 352 kts | 312° |
| 2026-05-04 09:26 | 51.02226 | 0.51227 | 15956 ft | 352 kts | 312° |
| 2026-05-04 09:27 | 51.03941 | 0.48444 | 15305 ft | 353 kts | 313° |
| 2026-05-04 09:27 | 51.05659 | 0.45656 | 14676 ft | 353 kts | 313° |
| 2026-05-04 09:27 | 51.07379 | 0.42877 | 14027 ft | 353 kts | 313° |
| 2026-05-04 09:27 | 51.09138 | 0.40136 | 13339 ft | 354 kts | 314° |
| 2026-05-04 09:28 | 51.10911 | 0.37442 | 12684 ft | 351 kts | 315° |
| 2026-05-04 09:28 | 51.12682 | 0.34779 | 12053 ft | 349 kts | 315° |
| 2026-05-04 09:28 | 51.14435 | 0.32136 | 11537 ft | 343 kts | 315° |
| 2026-05-04 09:28 | 51.16120 | 0.29588 | 11407 ft | 326 kts | 315° |
| 2026-05-04 09:29 | 51.17708 | 0.27175 | 11286 ft | 312 kts | 314° |
| 2026-05-04 09:29 | 51.19247 | 0.24824 | 11122 ft | 301 kts | 314° |
| 2026-05-04 09:29 | 51.20752 | 0.22518 | 10697 ft | 300 kts | 314° |
| 2026-05-04 09:29 | 51.22243 | 0.20227 | 10350 ft | 298 kts | 314° |
| 2026-05-04 09:30 | 51.23726 | 0.17943 | 10015 ft | 295 kts | 314° |
| 2026-05-04 09:30 | 51.25199 | 0.15674 | 9656 ft | 293 kts | 314° |
| 2026-05-04 09:30 | 51.26662 | 0.13420 | 9269 ft | 291 kts | 314° |
| 2026-05-04 09:30 | 51.28114 | 0.11183 | 8852 ft | 288 kts | 314° |
| 2026-05-04 09:31 | 51.29549 | 0.08966 | 8428 ft | 283 kts | 314° |
| 2026-05-04 09:31 | 51.30940 | 0.06812 | 8063 ft | 278 kts | 314° |
| 2026-05-04 09:31 | 51.32194 | 0.04532 | 7800 ft | 266 kts | 301° |
| 2026-05-04 09:31 | 51.32953 | 0.01942 | 7689 ft | 251 kts | 284° |
| 2026-05-04 09:32 | 51.33210 | -0.00746 | 7473 ft | 241 kts | 270° |
| 2026-05-04 09:32 | 51.33270 | -0.03431 | 7171 ft | 241 kts | 271° |
| 2026-05-04 09:34 | 51.36927 | -0.17845 | 5606 ft | 211 kts | 14° |
| 2026-05-04 09:34 | 51.38293 | -0.16971 | 5222 ft | 214 kts | 38° |
| 2026-05-04 09:34 | 51.39244 | -0.15160 | 4919 ft | 214 kts | 59° |
| 2026-05-04 09:34 | 51.39945 | -0.13071 | 4607 ft | 213 kts | 73° |
| 2026-05-04 09:35 | 51.40279 | -0.10775 | 4334 ft | 211 kts | 80° |
| 2026-05-04 09:35 | 51.40573 | -0.08476 | 4066 ft | 211 kts | 71° |
| 2026-05-04 09:35 | 51.41437 | -0.06635 | 3810 ft | 209 kts | 34° |
| 2026-05-04 09:35 | 51.42755 | -0.05890 | 3572 ft | 209 kts | 8° |
| 2026-05-04 09:37 | 51.47805 | -0.16232 | 2513 ft | 172 kts | 270° |
| 2026-05-04 09:37 | 51.47805 | -0.18146 | 2506 ft | 172 kts | 270° |
| 2026-05-04 09:38 | 51.47805 | -0.20060 | 2510 ft | 171 kts | 270° |
| 2026-05-04 09:38 | 51.47803 | -0.21977 | 2508 ft | 172 kts | 270° |
| 2026-05-04 09:38 | 51.47801 | -0.23884 | 2440 ft | 171 kts | 270° |
| 2026-05-04 09:38 | 51.47799 | -0.25782 | 2260 ft | 170 kts | 270° |
| 2026-05-04 09:39 | 51.47797 | -0.27682 | 2044 ft | 171 kts | 270° |
| 2026-05-04 09:39 | 51.47794 | -0.29588 | 1823 ft | 170 kts | 271° |
| 2026-05-04 09:39 | 51.47791 | -0.31470 | 1592 ft | 164 kts | 271° |
| 2026-05-04 09:39 | 51.47788 | -0.33247 | 1367 ft | 154 kts | 271° |
| 2026-05-04 09:40 | 51.47784 | -0.34921 | 1165 ft | 146 kts | 271° |
| 2026-05-04 09:40 | 51.47781 | -0.36533 | 968 ft | 143 kts | 271° |
| 2026-05-04 09:40 | 51.47778 | -0.38113 | 773 ft | 141 kts | 272° |
| 2026-05-04 09:40 | 51.47775 | -0.39681 | 590 ft | 140 kts | 272° |
| 2026-05-04 09:41 | 51.47771 | -0.41239 | 390 ft | 139 kts | 273° |
| 2026-05-04 09:42 | 51.47608 | -0.46888 | 90 ft | 9 kts | 198° |
| 2026-05-04 09:43 | 51.47583 | -0.46977 | 86 ft | 11 kts | 267° |
| 2026-05-04 09:43 | 51.47584 | -0.47122 | 86 ft | 15 kts | 270° |
| 2026-05-04 09:43 | 51.47581 | -0.47306 | 89 ft | 18 kts | 269° |
| 2026-05-04 09:43 | 51.47581 | -0.47511 | 86 ft | 15 kts | 270° |
| 2026-05-04 09:44 | 51.47580 | -0.47675 | 86 ft | 17 kts | 269° |
| 2026-05-04 09:44 | 51.47580 | -0.47879 | 88 ft | 20 kts | 269° |
| 2026-05-04 09:44 | 51.47580 | -0.48120 | 88 ft | 23 kts | 269° |
| 2026-05-04 09:46 | 51.47114 | -0.48472 | 86 ft | 14 kts | 179° |
| 2026-05-04 09:46 | 51.47062 | -0.48472 | 89 ft | 2 kts | 180° |
| 2026-05-04 09:46 | 51.47046 | -0.48483 | 86 ft | 1 kts | 245° |
| 2026-05-04 09:47 | 51.47049 | -0.48518 | 88 ft | 5 kts | 271° |
| 2026-05-04 09:47 | 51.47049 | -0.48573 | 88 ft | 3 kts | 269° |
| 2026-05-04 09:49 | 51.47049 | -0.48587 | 89 ft | 0 kts | 270° |